Time;durP1;ratioP1;P1;durP2;ratioP2;P2;SDS_P1;SDS_P2;PMS_P1;PMS_P2;Temp;Humidity;BMP_temperature;BMP_pressure;BME280_temperature;BME280_humidity;BME280_pressure;Samples;Min_cycle;Max_cycle;Signal;HPM_P1;HPM_P2
2021/06/23 16:20:34;;;;;;;19.98;11.93;;;;;;;27.66;51.96;99539.16;5074216;27;20386;-68
2021/06/23 16:23:00;;;;;;;18.58;10.52;;;;;;;28.56;41.27;99529.41;5062951;28;20041;-58
2021/06/23 16:25:27;;;;;;;14.60;7.55;;;;;;;28.90;40.55;99530.53;5070987;28;20048;-58
2021/06/23 16:27:54;;;;;;;17.48;8.10;;;;;;;29.28;39.97;99536.41;5073102;28;20045;-58
2021/06/23 16:30:20;;;;;;;19.42;8.25;;;;;;;29.76;39.01;99528.78;5061372;28;20568;-59
2021/06/23 16:32:46;;;;;;;17.75;7.63;;;;;;;29.98;38.90;99538.16;5064011;28;20094;-59
2021/06/23 16:35:13;;;;;;;17.85;7.97;;;;;;;30.15;38.67;99536.84;5063454;28;20135;-59
2021/06/23 16:37:38;;;;;;;13.55;7.72;;;;;;;30.23;38.41;99535.84;5064011;28;20098;-59
2021/06/23 16:40:05;;;;;;;24.30;8.23;;;;;;;30.35;38.43;99540.34;5062840;28;20056;-58
2021/06/23 16:42:32;;;;;;;17.15;7.70;;;;;;;30.44;38.37;99538.91;5061775;28;20049;-58
2021/06/23 16:44:57;;;;;;;22.42;7.70;;;;;;;30.45;38.72;99540.53;5062550;28;20044;-59
2021/06/23 16:47:23;;;;;;;17.83;8.80;;;;;;;30.42;39.41;99541.25;5063137;28;20079;-59
2021/06/23 16:49:49;;;;;;;24.50;9.38;;;;;;;30.37;39.62;99536.09;5029999;28;20078;-59
2021/06/23 16:52:15;;;;;;;17.33;8.27;;;;;;;30.34;39.40;99547.75;5061728;28;20244;-58
2021/06/23 16:54:41;;;;;;;13.80;8.57;;;;;;;30.35;39.31;99543.06;5062950;28;20525;-60
2021/06/23 16:57:07;;;;;;;15.20;8.18;;;;;;;30.35;39.51;99543.84;5064559;28;20054;-58
2021/06/23 16:59:33;;;;;;;22.17;8.98;;;;;;;30.31;40.05;99543.03;5062996;28;20059;-59
2021/06/23 17:01:59;;;;;;;15.82;8.77;;;;;;;30.26;40.21;99548.78;5063958;28;20041;-59
2021/06/23 17:04:26;;;;;;;22.25;7.90;;;;;;;30.19;40.09;99556.88;5061670;28;20494;-58
2021/06/23 17:06:57;;;;;;;14.38;8.00;;;;;;;30.14;40.74;99548.97;5063949;28;20044;-60
2021/06/23 17:09:24;;;;;;;19.42;8.32;;;;;;;30.11;40.69;99555.94;5063541;28;20052;-59
2021/06/23 17:11:50;;;;;;;13.13;7.70;;;;;;;30.13;40.86;99559.09;5062522;28;20453;-60
2021/06/23 17:14:16;;;;;;;18.85;8.35;;;;;;;30.07;40.98;99558.63;5061906;28;20045;-59
2021/06/23 17:16:42;;;;;;;17.13;7.65;;;;;;;30.01;41.08;99548.34;5061767;28;20094;-59
2021/06/23 17:19:08;;;;;;;11.48;7.65;;;;;;;30.02;40.97;99552.66;5062084;28;20064;-58
2021/06/23 17:21:35;;;;;;;18.08;7.80;;;;;;;30.05;40.46;99551.94;5063429;28;20114;-58
2021/06/23 17:24:01;;;;;;;10.27;6.95;;;;;;;29.98;40.77;99552.59;5063249;28;20045;-58
2021/06/23 17:26:27;;;;;;;17.20;7.80;;;;;;;30.00;40.74;99553.03;5062009;28;20063;-59
2021/06/23 17:28:54;;;;;;;22.77;8.35;;;;;;;29.93;40.24;99552.91;5062665;28;20128;-58
2021/06/23 17:31:20;;;;;;;14.55;7.95;;;;;;;29.92;40.65;99556.78;5018656;28;20048;-57
2021/06/23 17:33:46;;;;;;;19.73;7.50;;;;;;;29.99;40.14;99553.38;5047337;28;20059;-59
2021/06/23 17:36:11;;;;;;;15.57;7.03;;;;;;;29.94;40.23;99545.47;5047927;28;20076;-59
2021/06/23 17:38:38;;;;;;;16.35;7.68;;;;;;;29.86;40.70;99547.31;5025878;28;20155;-58
2021/06/23 17:41:06;;;;;;;16.67;6.95;;;;;;;29.78;40.84;99540.13;5029178;28;20041;-55
2021/06/23 17:43:33;;;;;;;15.07;8.25;;;;;;;29.73;41.03;99546.69;5029232;28;20495;-57
2021/06/23 17:46:00;;;;;;;17.30;7.63;;;;;;;29.69;41.10;99545.84;5029066;28;20038;-58
2021/06/23 17:48:26;;;;;;;18.08;7.53;;;;;;;29.71;40.61;99549.00;5030335;28;20054;-60
2021/06/23 17:50:52;;;;;;;21.25;8.20;;;;;;;29.65;41.03;99555.91;5009390;28;20061;-59
2021/06/23 17:53:19;;;;;;;17.15;7.80;;;;;;;29.50;41.30;99552.06;4993442;28;20050;-56
2021/06/23 17:55:54;;;;;;;14.60;8.65;;;;;;;29.48;41.36;99554.38;5042256;28;20072;-55
2021/06/23 17:58:25;;;;;;;20.13;8.10;;;;;;;29.46;41.33;99551.22;5030734;28;20433;-58
2021/06/23 18:00:54;;;;;;;15.07;7.20;;;;;;;29.45;41.88;99557.06;5049205;28;20045;-56
2021/06/23 18:03:25;;;;;;;18.83;7.68;;;;;;;29.46;41.54;99558.63;5031142;28;20049;-57
2021/06/23 18:05:51;;;;;;;14.27;7.95;;;;;;;29.34;42.37;99549.41;5047966;28;20057;-57
2021/06/23 18:08:18;;;;;;;15.40;8.30;;;;;;;29.23;42.70;99556.59;5048375;28;20404;-58
2021/06/23 18:10:44;;;;;;;21.20;8.18;;;;;;;29.14;42.68;99561.47;5050176;28;20049;-58
2021/06/23 18:13:11;;;;;;;21.70;7.60;;;;;;;29.16;42.65;99559.97;4944170;28;20049;-58
2021/06/23 18:15:38;;;;;;;22.83;7.35;;;;;;;29.08;43.00;99560.97;4978728;28;20040;-59
2021/06/23 18:18:06;;;;;;;14.23;6.90;;;;;;;28.95;42.99;99559.50;4985217;28;20561;-56
2021/06/23 18:20:33;;;;;;;16.88;7.55;;;;;;;28.86;43.37;99556.97;5051405;28;20041;-56
2021/06/23 18:22:59;;;;;;;15.43;7.40;;;;;;;28.76;43.42;99563.75;5066928;28;20048;-59
2021/06/23 18:25:25;;;;;;;14.95;7.15;;;;;;;28.67;44.16;99562.34;5045138;28;20044;-57
2021/06/23 18:27:51;;;;;;;22.80;8.80;;;;;;;28.57;43.77;99566.44;5008861;28;66299;-57
2021/06/23 18:30:18;;;;;;;35.25;10.38;;;;;;;28.46;42.08;99562.66;5073449;28;20044;-65
2021/06/23 18:32:44;;;;;;;21.83;8.68;;;;;;;28.36;43.99;99558.50;4862565;28;736640;-58
2021/06/23 18:35:11;;;;;;;17.27;7.97;;;;;;;28.31;44.37;99569.66;4937558;28;20179;-58
2021/06/23 18:37:37;;;;;;;14.60;8.20;;;;;;;28.25;44.39;99566.41;4983411;28;20051;-59
2021/06/23 18:40:08;;;;;;;15.00;7.32;;;;;;;28.20;44.85;99560.41;4991668;28;20113;-57
2021/06/23 18:42:34;;;;;;;20.08;8.18;;;;;;;28.16;44.95;99570.47;5069424;28;20585;-58
2021/06/23 18:45:03;;;;;;;19.98;8.35;;;;;;;28.08;45.15;99581.16;5067814;28;20103;-59
2021/06/23 18:47:28;;;;;;;16.80;7.90;;;;;;;28.04;45.59;99579.50;5069887;28;20056;-59
2021/06/23 18:49:54;;;;;;;16.92;8.65;;;;;;;27.99;45.75;99575.09;5069588;28;20049;-60
2021/06/23 18:52:20;;;;;;;23.98;8.52;;;;;;;27.94;46.08;99580.78;5068567;28;20036;-58
2021/06/23 18:54:46;;;;;;;19.75;8.77;;;;;;;27.86;46.38;99579.03;5000185;28;20065;-59
2021/06/23 18:57:12;;;;;;;16.33;8.38;;;;;;;27.80;46.38;99581.22;4912880;28;20061;-59
2021/06/23 18:59:38;;;;;;;18.02;8.85;;;;;;;27.76;46.78;99576.75;5043476;28;20564;-60
2021/06/23 19:02:04;;;;;;;22.90;10.15;;;;;;;27.69;47.47;99571.94;5048451;28;20631;-60
2021/06/23 19:04:30;;;;;;;20.35;8.65;;;;;;;27.68;46.95;99580.44;5046557;28;20066;-58
2021/06/23 19:06:56;;;;;;;23.52;9.20;;;;;;;27.63;46.49;99576.03;5047753;28;20242;-60
2021/06/23 19:09:22;;;;;;;18.70;9.85;;;;;;;27.60;47.23;99579.47;5048432;28;20072;-60
2021/06/23 19:11:48;;;;;;;24.52;9.82;;;;;;;27.53;48.29;99579.25;5047663;28;20073;-60
2021/06/23 19:14:15;;;;;;;17.33;9.63;;;;;;;27.48;48.07;99576.78;5043990;28;20076;-57
2021/06/23 19:16:43;;;;;;;23.80;10.43;;;;;;;27.43;47.72;99572.38;5045916;28;20047;-57
2021/06/23 19:19:09;;;;;;;24.45;10.43;;;;;;;27.37;47.74;99574.53;5042762;28;20087;-58
2021/06/23 19:21:35;;;;;;;23.38;9.57;;;;;;;27.38;48.21;99575.31;5050707;28;20048;-58
2021/06/23 19:24:02;;;;;;;24.83;9.50;;;;;;;27.31;48.48;99578.63;5050060;28;20051;-60
2021/06/23 19:26:28;;;;;;;18.27;9.23;;;;;;;27.29;48.01;99572.75;5050626;28;20044;-58
2021/06/23 19:28:54;;;;;;;18.95;8.80;;;;;;;27.29;47.99;99569.22;5050623;28;20546;-58
2021/06/23 19:31:21;;;;;;;20.67;8.88;;;;;;;27.35;47.47;99576.00;5051224;28;20041;-59
2021/06/23 19:33:47;;;;;;;20.83;9.00;;;;;;;27.35;47.98;99582.25;5051639;28;20045;-57
2021/06/23 19:36:14;;;;;;;24.70;10.73;;;;;;;27.39;48.06;99583.16;5051571;28;20141;-57
2021/06/23 19:38:40;;;;;;;19.33;9.57;;;;;;;27.45;47.89;99586.44;5051078;28;20553;-58
2021/06/23 19:41:06;;;;;;;19.08;10.43;;;;;;;27.44;47.52;99584.81;5049667;28;20041;-58
2021/06/23 19:43:32;;;;;;;23.88;9.38;;;;;;;27.37;47.85;99587.34;5051461;28;20071;-60
2021/06/23 19:45:58;;;;;;;24.80;9.85;;;;;;;27.36;48.02;99580.34;5051201;28;20048;-58
2021/06/23 19:48:24;;;;;;;20.02;9.73;;;;;;;27.57;47.31;99588.31;5049880;28;20052;-59
2021/06/23 19:50:50;;;;;;;19.73;9.10;;;;;;;27.51;47.66;99592.44;5051128;28;20068;-59
2021/06/23 19:53:16;;;;;;;21.70;9.98;;;;;;;27.34;48.98;99586.13;5050410;28;20064;-58
2021/06/23 19:55:42;;;;;;;18.95;10.40;;;;;;;27.32;50.16;99577.50;5051030;28;20044;-58
2021/06/23 19:58:10;;;;;;;22.63;10.65;;;;;;;27.27;49.58;99585.13;5051083;28;20116;-58
2021/06/23 20:00:38;;;;;;;24.67;11.48;;;;;;;27.25;50.30;99590.91;5051049;28;20049;-58
2021/06/23 20:03:05;;;;;;;30.13;12.20;;;;;;;27.17;50.82;99583.66;5050848;28;20036;-59
2021/06/23 20:05:31;;;;;;;32.75;14.02;;;;;;;27.03;50.87;99588.66;5048932;28;20041;-58
2021/06/23 20:07:57;;;;;;;23.75;12.45;;;;;;;26.89;51.82;99591.75;5050033;28;20044;-60
2021/06/23 20:10:23;;;;;;;26.63;13.45;;;;;;;26.85;51.85;99588.88;5051044;28;20057;-58
2021/06/23 20:12:51;;;;;;;26.38;13.57;;;;;;;26.85;52.00;99598.97;5050866;28;20497;-59
2021/06/23 20:15:17;;;;;;;31.98;13.70;;;;;;;26.81;52.07;99595.38;5051023;28;20045;-57
2021/06/23 20:17:44;;;;;;;21.70;11.93;;;;;;;26.71;52.21;99591.19;5048774;28;20323;-58
2021/06/23 20:20:10;;;;;;;29.33;12.02;;;;;;;26.63;51.92;99582.00;5049445;28;20049;-59
2021/06/23 20:22:36;;;;;;;22.83;12.45;;;;;;;26.55;52.55;99588.34;5048130;28;20144;-59
2021/06/23 20:25:03;;;;;;;22.05;10.90;;;;;;;26.53;52.29;99592.53;5050184;28;20076;-59
2021/06/23 20:27:29;;;;;;;32.85;12.38;;;;;;;26.49;52.77;99595.91;5050426;28;20037;-60
2021/06/23 20:29:55;;;;;;;31.60;13.00;;;;;;;26.43;53.35;99591.03;5050484;28;20402;-57
2021/06/23 20:32:21;;;;;;;19.77;11.88;;;;;;;26.52;52.60;99591.72;5050162;28;20128;-58
2021/06/23 20:34:47;;;;;;;26.75;12.82;;;;;;;26.54;52.13;99592.19;5051147;28;20040;-57
2021/06/23 20:37:14;;;;;;;26.40;13.88;;;;;;;26.52;52.48;99590.94;5050058;28;20033;-58
2021/06/23 20:39:43;;;;;;;34.65;15.13;;;;;;;26.45;52.85;99586.03;5050895;28;20049;-59
2021/06/23 20:42:10;;;;;;;25.85;14.80;;;;;;;26.40;52.96;99592.47;5050777;28;20415;-58
2021/06/23 20:44:35;;;;;;;23.10;12.52;;;;;;;26.43;52.62;99585.59;5050531;28;20053;-60
2021/06/23 20:47:02;;;;;;;30.77;13.32;;;;;;;26.46;52.34;99582.97;5049754;28;20041;-60
2021/06/23 20:49:28;;;;;;;28.70;13.40;;;;;;;26.51;52.63;99587.44;5050052;28;20053;-59
2021/06/23 20:51:54;;;;;;;23.27;12.63;;;;;;;26.56;52.11;99589.13;5047864;28;20132;-59
2021/06/23 20:54:20;;;;;;;25.63;13.45;;;;;;;26.45;53.00;99591.47;5050618;28;20494;-59
2021/06/23 20:56:46;;;;;;;27.80;12.90;;;;;;;26.41;53.37;99590.56;5048920;28;20071;-59
2021/06/23 20:59:12;;;;;;;25.55;13.02;;;;;;;26.36;52.83;99588.06;5050272;28;20072;-59
2021/06/23 21:01:40;;;;;;;23.30;13.65;;;;;;;26.33;53.54;99589.53;5049774;28;20421;-59
2021/06/23 21:04:06;;;;;;;25.80;13.40;;;;;;;26.22;53.82;99588.38;5050231;28;20131;-60
2021/06/23 21:06:32;;;;;;;27.17;12.98;;;;;;;26.15;53.58;99586.22;5067198;28;20147;-59
2021/06/23 21:08:59;;;;;;;29.58;13.32;;;;;;;26.24;53.48;99595.06;5054450;28;20047;-59
2021/06/23 21:11:55;;;;;;;22.27;12.05;;;;;;;26.17;53.84;99594.81;5053287;28;20048;-58
2021/06/23 21:14:23;;;;;;;29.52;12.98;;;;;;;26.13;53.61;99598.56;5052964;28;20442;-58
2021/06/23 21:16:49;;;;;;;19.75;12.93;;;;;;;26.03;54.33;99586.19;5054502;28;20052;-58
2021/06/23 21:19:28;;;;;;;27.80;12.75;;;;;;;26.04;53.72;99591.28;5054034;28;20144;-58
2021/06/23 21:21:55;;;;;;;24.52;12.00;;;;;;;26.05;53.70;99592.88;5054818;28;20052;-58
2021/06/23 21:24:30;;;;;;;22.75;12.68;;;;;;;26.03;54.27;99586.19;5054579;28;20715;-58
2021/06/23 21:27:13;;;;;;;22.33;11.77;;;;;;;25.94;54.50;99588.19;5054305;28;20049;-58
2021/06/23 21:29:44;;;;;;;20.45;12.52;;;;;;;25.89;54.60;99580.28;5054540;28;20053;-58
2021/06/23 21:32:12;;;;;;;17.45;11.57;;;;;;;25.89;53.92;99583.00;5052916;28;20502;-58
2021/06/23 21:34:39;;;;;;;23.90;12.27;;;;;;;25.85;54.34;99580.13;5054310;28;20529;-58
2021/06/23 21:37:06;;;;;;;22.40;13.02;;;;;;;25.81;54.60;99582.69;5053935;28;20041;-58
2021/06/23 21:39:32;;;;;;;20.30;13.27;;;;;;;25.94;54.14;99589.00;5054190;28;20048;-58
2021/06/23 21:42:02;;;;;;;17.50;12.57;;;;;;;25.90;54.49;99582.66;5053867;28;20049;-59
2021/06/23 21:44:30;;;;;;;18.67;12.55;;;;;;;25.86;54.63;99578.25;5052676;28;20045;-58
2021/06/23 21:47:04;;;;;;;20.38;13.88;;;;;;;25.79;55.18;99578.72;5052525;28;20048;-59
2021/06/23 21:49:36;;;;;;;23.23;13.00;;;;;;;25.79;54.98;99582.22;5053966;28;20052;-58
2021/06/23 21:52:08;;;;;;;25.02;13.13;;;;;;;25.71;55.63;99583.13;5019552;28;20051;-59
2021/06/23 21:54:51;;;;;;;26.17;13.00;;;;;;;25.58;56.07;99578.75;5052534;28;20457;-59
2021/06/23 21:57:23;;;;;;;25.40;12.77;;;;;;;25.53;55.75;99581.69;5054028;28;20059;-58
2021/06/23 21:59:55;;;;;;;19.38;12.20;;;;;;;25.60;55.82;99592.81;5053756;28;20052;-58
2021/06/23 22:02:24;;;;;;;27.02;13.27;;;;;;;25.64;55.86;99584.78;5053510;28;20067;-59
2021/06/23 22:05:13;;;;;;;26.77;14.65;;;;;;;25.64;55.85;99596.44;5052438;28;20138;-58
2021/06/23 22:07:42;;;;;;;33.75;15.68;;;;;;;25.42;56.09;99565.03;5050632;28;20044;-59
2021/06/23 22:10:15;;;;;;;26.77;14.60;;;;;;;25.51;56.11;99586.66;5052253;28;20106;-59
2021/06/23 22:12:56;;;;;;;27.88;15.38;;;;;;;25.36;56.92;99583.41;5053290;28;20055;-59
2021/06/23 22:15:27;;;;;;;21.77;13.88;;;;;;;25.27;56.63;99587.34;5053540;28;20600;-58
2021/06/23 22:17:55;;;;;;;24.48;12.70;;;;;;;25.19;57.35;99580.03;5052021;28;20053;-59
2021/06/23 22:20:27;;;;;;;24.75;13.23;;;;;;;25.10;57.42;99569.22;5051745;28;20118;-59
2021/06/23 22:22:56;;;;;;;23.85;13.90;;;;;;;25.04;57.71;99574.03;5052283;28;20420;-58
2021/06/23 22:25:25;;;;;;;28.65;14.88;;;;;;;24.96;57.67;99565.97;5053593;28;20041;-59
2021/06/23 22:27:53;;;;;;;23.50;13.30;;;;;;;25.06;57.25;99571.81;5053400;28;20047;-59
2021/06/23 22:30:22;;;;;;;32.17;13.98;;;;;;;25.15;57.25;99574.50;5051875;28;20295;-59
2021/06/23 22:32:50;;;;;;;21.55;12.77;;;;;;;25.18;56.91;99575.72;5053329;28;20037;-59
2021/06/23 22:35:17;;;;;;;26.63;12.80;;;;;;;25.13;56.96;99579.41;5053387;28;20091;-58
2021/06/23 22:37:48;;;;;;;24.05;13.13;;;;;;;25.14;56.94;99575.59;5053186;28;20441;-58
2021/06/23 22:40:18;;;;;;;21.67;14.30;;;;;;;25.06;57.17;99577.22;5052919;28;20049;-58
2021/06/23 22:42:55;;;;;;;22.77;13.77;;;;;;;24.96;57.57;99572.19;5052879;28;20037;-59
2021/06/23 22:45:22;;;;;;;21.00;13.13;;;;;;;24.90;57.82;99568.84;5051477;28;20388;-59
2021/06/23 22:47:53;;;;;;;21.38;13.35;;;;;;;24.93;57.55;99578.25;5051815;28;20044;-58
2021/06/23 22:50:42;;;;;;;27.35;13.65;;;;;;;24.90;57.61;99576.22;5052814;28;20045;-58
2021/06/23 22:53:18;;;;;;;24.13;13.07;;;;;;;24.90;57.69;99584.34;5052878;28;20073;-59
2021/06/23 22:55:48;;;;;;;23.80;13.95;;;;;;;24.91;57.69;99585.91;5066812;28;20045;-58
2021/06/23 22:58:37;;;;;;;26.48;13.95;;;;;;;24.85;57.78;99579.88;5052566;28;20127;-57
2021/06/23 23:01:06;;;;;;;;;;;;;;;24.81;58.20;99578.97;5052585;28;20045;-59
2021/06/23 23:04:11;;;;;;;26.30;15.65;;;;;;;24.72;58.51;99574.72;5049826;28;20411;-58
2021/06/23 23:06:46;;;;;;;22.88;14.68;;;;;;;24.65;58.63;99577.94;5069416;28;20053;-58
2021/06/23 23:09:22;;;;;;;23.33;14.75;;;;;;;24.60;58.55;99578.91;5051946;28;20051;-57
2021/06/23 23:11:53;;;;;;;23.55;14.77;;;;;;;24.56;59.08;99582.59;5068529;28;20049;-58
2021/06/23 23:14:26;;;;;;;29.52;14.63;;;;;;;24.50;58.81;99578.47;5069589;28;20044;-57
2021/06/23 23:17:02;;;;;;;24.00;14.90;;;;;;;24.48;59.25;99582.31;5069784;28;20048;-58
2021/06/23 23:19:33;;;;;;;18.17;14.57;;;;;;;24.48;59.05;99576.91;5069519;28;20135;-58
2021/06/23 23:22:04;;;;;;;21.60;14.45;;;;;;;24.51;58.90;99582.78;5069001;28;20060;-58
2021/06/23 23:24:41;;;;;;;23.40;14.05;;;;;;;24.48;58.99;99568.78;5052356;28;20052;-58
2021/06/23 23:27:14;;;;;;;24.10;15.10;;;;;;;24.43;59.56;99574.34;5022676;28;20049;-58
2021/06/23 23:29:46;;;;;;;17.10;12.60;;;;;;;24.46;59.06;99583.75;5052611;28;20040;-58
2021/06/23 23:32:35;;;;;;;17.63;13.18;;;;;;;24.38;59.67;99576.41;5034449;28;20464;-57
2021/06/23 23:35:03;;;;;;;22.95;14.70;;;;;;;24.33;59.77;99582.03;5036043;28;20098;-58
2021/06/23 23:37:55;;;;;;;29.92;15.25;;;;;;;24.26;60.01;99583.31;5036297;28;20048;-59
2021/06/23 23:40:24;;;;;;;22.95;13.70;;;;;;;24.27;60.23;99576.00;5051818;28;20134;-58
2021/06/23 23:42:55;;;;;;;19.58;13.68;;;;;;;24.24;60.03;99576.66;5035999;28;20601;-58
2021/06/23 23:45:45;;;;;;;20.58;13.50;;;;;;;24.20;60.49;99586.53;5033354;28;20053;-59
2021/06/23 23:48:19;;;;;;;23.20;14.80;;;;;;;24.19;60.83;99582.22;5049009;28;20056;-58
2021/06/23 23:50:57;;;;;;;23.05;14.35;;;;;;;24.17;60.95;99589.88;5028942;28;20053;-59
2021/06/23 23:53:24;;;;;;;26.90;15.27;;;;;;;24.09;60.70;99586.09;5048365;28;20053;-58
2021/06/23 23:55:51;;;;;;;25.67;14.18;;;;;;;24.10;60.70;99582.25;5032212;28;20301;-59
2021/06/23 23:58:24;;;;;;;26.42;16.30;;;;;;;24.08;61.24;99583.69;5032229;28;20057;-58
